createdAt,value
2022-09-01T00:00:03.926Z,19.60
2022-09-01T00:02:31.079Z,19.70
2022-09-01T00:04:58.666Z,19.60
2022-09-01T00:07:30.712Z,19.60
2022-09-01T00:09:59.533Z,19.60
2022-09-01T00:12:27.619Z,19.50
2022-09-01T00:14:54.672Z,19.60
2022-09-01T00:17:21.984Z,19.50
2022-09-01T00:19:49.502Z,19.40
2022-09-01T00:22:16.655Z,19.30
2022-09-01T00:43:47.324Z,19.00
2022-09-01T00:46:21.998Z,18.80
2022-09-01T00:48:59.669Z,18.80
2022-09-01T00:56:14.236Z,18.90
2022-09-01T00:58:42.316Z,18.80
2022-09-01T01:01:11.683Z,18.80
2022-09-01T01:03:45.910Z,18.90
2022-09-01T01:06:17.104Z,19.00
2022-09-01T01:08:57.887Z,18.90
2022-09-01T01:11:26.971Z,19.10
2022-09-01T01:13:55.921Z,19.10
2022-09-01T01:16:25.687Z,19.10
2022-09-01T01:18:53.804Z,19.10
2022-09-01T01:21:55.450Z,19.00
2022-09-01T01:24:29.478Z,18.80
2022-09-01T01:27:00.168Z,18.60
2022-09-01T01:29:31.853Z,18.70
2022-09-01T01:31:58.823Z,18.70
2022-09-01T01:34:25.642Z,18.80
2022-09-01T01:36:53.337Z,18.80
2022-09-01T01:39:25.608Z,18.70
2022-09-01T01:41:55.780Z,18.90
2022-09-01T01:44:28.379Z,18.90
2022-09-01T01:46:56.168Z,19.00
2022-09-01T01:49:26.013Z,19.00
2022-09-01T01:52:49.323Z,19.00
2022-09-01T01:55:27.481Z,18.80
2022-09-01T01:57:54.925Z,18.60
2022-09-01T02:00:30.566Z,18.60
2022-09-01T02:02:58.841Z,18.60
2022-09-01T02:05:30.331Z,18.60
2022-09-01T02:08:01.849Z,18.70
2022-09-01T02:10:32.006Z,18.60
2022-09-01T02:13:04.352Z,18.40
2022-09-01T02:15:43.810Z,18.40
2022-09-01T02:18:16.751Z,18.30
2022-09-01T02:20:47.772Z,18.30
2022-09-01T02:23:18.130Z,18.40
2022-09-01T02:26:14.027Z,18.30
2022-09-01T02:28:42.024Z,18.30
2022-09-01T02:31:11.345Z,18.20
2022-09-01T02:33:40.654Z,18.20
2022-09-01T02:36:13.382Z,17.90
2022-09-01T02:38:46.095Z,17.90
2022-09-01T02:41:15.265Z,17.80
2022-09-01T02:43:46.260Z,17.70
2022-09-01T02:46:14.877Z,17.80
2022-09-01T02:48:46.385Z,17.80
2022-09-01T02:55:51.542Z,17.60
2022-09-01T02:58:20.351Z,17.50
2022-09-01T03:00:57.462Z,17.60
2022-09-01T03:03:25.550Z,17.50
2022-09-01T03:05:56.235Z,17.50
2022-09-01T03:08:24.959Z,17.50
2022-09-01T03:10:54.075Z,17.50
2022-09-01T03:13:23.945Z,17.50
2022-09-01T03:15:51.472Z,17.30
2022-09-01T03:18:19.076Z,17.10
2022-09-01T03:20:47.058Z,17.10
2022-09-01T03:23:19.322Z,16.80
2022-09-01T03:25:47.723Z,16.90
2022-09-01T03:28:15.957Z,16.90
2022-09-01T03:30:55.338Z,17.00
2022-09-01T03:33:25.100Z,17.00
2022-09-01T03:35:52.440Z,16.90
2022-09-01T03:38:24.468Z,16.90
2022-09-01T03:40:54.827Z,16.80
2022-09-01T03:43:24.986Z,16.70
2022-09-01T03:45:51.967Z,16.50
2022-09-01T03:48:19.525Z,16.60
2022-09-01T03:50:47.339Z,16.60
2022-09-01T03:57:14.423Z,16.40
2022-09-01T03:59:45.224Z,16.50
2022-09-01T04:02:13.141Z,16.40
2022-09-01T04:04:40.115Z,16.40
2022-09-01T04:07:07.534Z,16.50
2022-09-01T04:09:35.315Z,16.40
2022-09-01T04:12:05.348Z,16.20
2022-09-01T04:14:34.881Z,16.20
2022-09-01T04:17:20.431Z,16.10
2022-09-01T04:19:47.602Z,16.00
2022-09-01T04:22:17.604Z,15.80
2022-09-01T04:24:46.129Z,15.80
2022-09-01T04:27:15.031Z,15.70
2022-09-01T04:29:41.863Z,15.80
2022-09-01T04:32:13.018Z,15.70
2022-09-01T04:34:41.601Z,15.70
2022-09-01T04:37:15.512Z,15.70
2022-09-01T04:39:51.376Z,15.60
2022-09-01T04:42:21.795Z,15.70
2022-09-01T04:44:48.734Z,15.70
2022-09-01T04:47:17.091Z,15.80
2022-09-01T04:49:50.931Z,15.80
2022-09-01T04:56:25.196Z,15.90
2022-09-01T04:58:55.709Z,15.80
2022-09-01T05:01:26.225Z,15.90
2022-09-01T05:04:01.431Z,15.90
2022-09-01T05:06:33.986Z,15.90
2022-09-01T05:09:00.845Z,15.90
2022-09-01T05:11:27.859Z,15.90
2022-09-01T05:13:57.794Z,15.90
2022-09-01T05:16:27.885Z,15.90
2022-09-01T05:18:57.098Z,16.00
2022-09-01T05:21:28.325Z,16.00
2022-09-01T05:24:00.671Z,16.20
2022-09-01T05:26:30.080Z,16.30
2022-09-01T05:29:00.168Z,16.30
2022-09-01T05:31:33.513Z,16.40
2022-09-01T05:34:02.152Z,16.50
2022-09-01T05:36:33.558Z,16.50
2022-09-01T05:39:02.160Z,16.50
2022-09-01T05:41:29.250Z,16.60
2022-09-01T05:44:00.629Z,16.60
2022-09-01T05:46:28.328Z,16.60
2022-09-01T05:48:56.829Z,16.60
2022-09-01T05:51:43.993Z,16.60
2022-09-01T05:58:19.989Z,16.70
2022-09-01T06:00:49.193Z,17.00
2022-09-01T06:03:17.693Z,17.00
2022-09-01T06:05:48.293Z,17.20
2022-09-01T06:08:15.433Z,17.30
2022-09-01T06:10:43.448Z,17.50
2022-09-01T06:13:10.760Z,17.70
2022-09-01T06:15:39.106Z,17.80
2022-09-01T06:18:07.046Z,17.90
2022-09-01T06:20:34.212Z,17.90
2022-09-01T06:23:01.090Z,17.90
2022-09-01T06:25:30.508Z,17.90
2022-09-01T06:27:57.819Z,18.10
2022-09-01T06:30:26.575Z,18.20
2022-09-01T06:32:54.554Z,18.30
2022-09-01T06:35:25.251Z,18.30
2022-09-01T06:37:52.815Z,18.50
2022-09-01T06:40:19.775Z,18.60
2022-09-01T06:42:48.342Z,18.70
2022-09-01T06:45:17.877Z,18.80
2022-09-01T06:47:47.195Z,19.00
2022-09-01T06:59:56.189Z,19.90
2022-09-01T07:02:27.021Z,19.90
2022-09-01T07:04:54.875Z,19.80
2022-09-01T07:10:24.896Z,20.00
2022-09-01T07:13:11.576Z,20.10
2022-09-01T07:18:27.837Z,20.30
2022-09-01T07:21:02.801Z,20.50
2022-09-01T07:23:46.345Z,20.60
2022-09-01T07:26:27.065Z,20.60
2022-09-01T07:29:01.946Z,20.70
2022-09-01T07:39:55.321Z,20.90
2022-09-01T07:45:27.325Z,21.10
2022-09-01T07:47:55.362Z,21.10
2022-09-01T07:50:39.774Z,21.20
2022-09-01T07:56:11.159Z,21.60
2022-09-01T07:58:40.299Z,21.70
2022-09-01T08:01:13.388Z,21.60
2022-09-01T08:03:41.470Z,21.60
2022-09-01T08:06:10.865Z,21.60
2022-09-01T08:08:39.954Z,21.50
2022-09-01T08:11:08.146Z,21.60
2022-09-01T08:13:41.622Z,21.70
2022-09-01T08:16:16.964Z,21.70
2022-09-01T08:18:48.589Z,21.60
2022-09-01T08:21:17.756Z,21.90
2022-09-01T08:23:44.658Z,22.00
2022-09-01T08:26:17.118Z,22.10
2022-09-01T08:28:54.330Z,21.90
2022-09-01T08:31:22.944Z,21.90
2022-09-01T08:33:51.038Z,21.90
2022-09-01T08:36:23.022Z,22.20
2022-09-01T08:38:51.628Z,22.20
2022-09-01T08:41:48.149Z,22.20
2022-09-01T08:44:44.044Z,22.30
2022-09-01T08:47:15.501Z,22.50
2022-09-01T08:49:46.809Z,22.40
2022-09-01T08:52:55.680Z,22.30
2022-09-01T08:55:34.410Z,22.40
2022-09-01T08:58:02.248Z,22.70
2022-09-01T09:00:42.468Z,22.80
2022-09-01T09:03:09.298Z,23.00
2022-09-01T09:05:43.508Z,23.00
2022-09-01T09:08:33.009Z,23.10
2022-09-01T09:11:06.665Z,23.40
2022-09-01T09:14:06.573Z,24.00
2022-09-01T09:16:41.046Z,24.40
2022-09-01T09:19:23.298Z,24.40
2022-09-01T09:21:54.177Z,24.50
2022-09-01T09:24:50.134Z,24.60
2022-09-01T09:27:39.931Z,24.80
2022-09-01T09:30:19.186Z,25.40
2022-09-01T09:35:51.098Z,25.30
2022-09-01T09:38:24.388Z,24.80
2022-09-01T09:41:26.083Z,24.60
2022-09-01T09:44:26.877Z,24.50
2022-09-01T09:46:53.734Z,24.40
2022-09-01T09:49:34.222Z,24.60
2022-09-01T09:52:09.717Z,24.70
2022-09-01T09:54:57.462Z,25.00
2022-09-01T10:30:43.226Z,26.80
2022-09-01T10:33:19.888Z,26.60
2022-09-01T10:35:52.914Z,26.60
2022-09-01T10:38:28.760Z,26.80
2022-09-01T10:41:14.904Z,27.70
2022-09-01T10:43:52.885Z,28.30
2022-09-01T10:46:38.659Z,28.20
2022-09-01T10:49:13.590Z,28.00
2022-09-01T10:51:51.381Z,28.40
2022-09-01T10:59:32.830Z,29.80
2022-09-01T11:02:28.372Z,30.30
2022-09-01T11:04:58.015Z,29.60
2022-09-01T11:07:50.447Z,29.10
2022-09-01T11:10:35.573Z,28.60
2022-09-01T11:13:15.931Z,28.60
2022-09-01T11:15:45.648Z,28.20
2022-09-01T11:18:29.381Z,28.40
2022-09-01T11:21:14.045Z,28.80
2022-09-01T11:23:41.766Z,28.50
2022-09-01T11:26:46.685Z,28.20
2022-09-01T11:29:51.239Z,28.10
2022-09-01T11:32:24.392Z,28.70
2022-09-01T11:34:52.779Z,29.40
2022-09-01T11:37:23.590Z,29.70
2022-09-01T11:39:58.833Z,29.90
2022-09-01T11:42:36.151Z,30.00
2022-09-01T11:45:20.814Z,30.20
2022-09-01T11:47:52.838Z,30.60
2022-09-01T11:50:26.963Z,30.70
2022-09-01T11:53:04.771Z,31.10
2022-09-01T11:56:28.595Z,31.10
2022-09-01T11:58:55.603Z,31.50
2022-09-01T12:01:33.723Z,31.90
2022-09-01T12:04:22.339Z,32.00
2022-09-01T12:06:59.373Z,32.00
2022-09-01T12:09:47.958Z,32.10
2022-09-01T12:12:36.570Z,32.50
2022-09-01T12:15:17.168Z,32.50
2022-09-01T12:17:46.684Z,32.50
2022-09-01T12:20:29.197Z,32.70
2022-09-01T12:22:58.418Z,33.00
2022-09-01T12:25:35.718Z,32.50
2022-09-01T12:28:06.138Z,32.00
2022-09-01T12:30:35.403Z,31.90
2022-09-01T12:33:23.378Z,31.80
2022-09-01T12:35:51.040Z,31.20
2022-09-01T12:38:21.114Z,31.40
2022-09-01T12:40:59.025Z,31.20
2022-09-01T12:43:35.129Z,30.90
2022-09-01T12:46:04.714Z,30.70
2022-09-01T12:48:36.053Z,31.00
2022-09-01T12:51:05.966Z,30.90
2022-09-01T12:53:36.580Z,30.60
2022-09-01T12:57:00.168Z,30.10
2022-09-01T12:59:35.969Z,29.60
2022-09-01T13:02:28.739Z,28.80
2022-09-01T13:04:56.336Z,28.90
2022-09-01T13:07:23.185Z,29.60
2022-09-01T13:09:50.044Z,30.30
2022-09-01T13:12:20.709Z,30.80
2022-09-01T13:14:48.364Z,30.90
2022-09-01T13:17:15.981Z,30.20
2022-09-01T13:19:42.971Z,29.80
2022-09-01T13:22:10.336Z,30.40
2022-09-01T13:24:37.406Z,31.30
2022-09-01T13:27:21.047Z,31.60
2022-09-01T13:29:49.335Z,31.20
2022-09-01T13:32:19.143Z,30.70
2022-09-01T13:34:49.214Z,30.20
2022-09-01T13:37:17.737Z,29.90
2022-09-01T13:39:45.744Z,29.40
2022-09-01T13:42:13.805Z,29.30
2022-09-01T13:44:40.732Z,29.80
2022-09-01T13:50:11.722Z,31.20
2022-09-01T13:52:41.545Z,30.90
2022-09-01T13:55:10.967Z,30.10
2022-09-01T14:02:34.868Z,29.40
2022-09-01T14:05:01.603Z,29.60
2022-09-01T14:07:30.035Z,29.40
2022-09-01T14:09:57.028Z,29.50
2022-09-01T14:12:24.258Z,29.60
2022-09-01T14:17:38.840Z,30.90
2022-09-01T14:20:08.839Z,31.50
2022-09-01T14:22:38.496Z,31.90
2022-09-01T14:25:07.052Z,32.20
2022-09-01T14:27:34.300Z,32.10
2022-09-01T14:30:01.147Z,31.90
2022-09-01T14:32:28.158Z,31.40
2022-09-01T14:34:56.021Z,30.90
2022-09-01T14:37:23.749Z,30.40
2022-09-01T14:39:55.225Z,30.20
2022-09-01T14:42:25.645Z,30.00
2022-09-01T14:44:52.988Z,30.00
2022-09-01T14:47:21.430Z,30.40
2022-09-01T14:49:48.384Z,30.60
2022-09-01T14:52:15.193Z,30.30
2022-09-01T14:54:42.544Z,30.00
2022-09-01T15:02:06.263Z,29.60
2022-09-01T15:04:34.014Z,29.40
2022-09-01T15:07:03.333Z,29.30
2022-09-01T15:09:30.174Z,29.20
2022-09-01T15:11:57.569Z,29.20
2022-09-01T15:14:24.639Z,29.40
2022-09-01T15:16:51.984Z,29.80
2022-09-01T15:19:18.992Z,30.60
2022-09-01T15:21:46.978Z,31.20
2022-09-01T15:24:13.893Z,31.60
2022-09-01T15:26:46.817Z,31.90
2022-09-01T15:29:15.110Z,32.30
2022-09-01T15:31:43.934Z,32.10
2022-09-01T15:34:13.684Z,31.70
2022-09-01T15:36:41.215Z,31.10
2022-09-01T15:39:09.298Z,30.50
2022-09-01T15:41:36.495Z,30.10
2022-09-01T15:44:08.119Z,29.60
2022-09-01T15:46:38.902Z,29.10
2022-09-01T15:49:08.768Z,28.70
2022-09-01T15:51:38.056Z,28.50
2022-09-01T15:54:11.808Z,28.20
2022-09-01T15:56:38.907Z,27.90
2022-09-01T16:00:03.377Z,27.70
2022-09-01T16:02:30.798Z,27.50
2022-09-01T16:04:57.708Z,27.40
2022-09-01T16:07:24.535Z,27.30
2022-09-01T16:09:57.844Z,27.20
2022-09-01T16:12:26.630Z,27.20
2022-09-01T16:14:55.213Z,27.50
2022-09-01T16:17:58.335Z,27.90
2022-09-01T16:20:35.681Z,28.60
2022-09-01T16:23:12.207Z,29.40
2022-09-01T16:25:39.338Z,29.80
2022-09-01T16:28:13.666Z,30.00
2022-09-01T16:30:40.893Z,30.40
2022-09-01T16:33:19.856Z,30.70
2022-09-01T16:36:06.454Z,30.80
2022-09-01T16:39:02.336Z,30.90
2022-09-01T16:41:34.476Z,31.20
2022-09-01T16:44:10.054Z,30.90
2022-09-01T16:46:49.715Z,30.80
2022-09-01T16:49:28.045Z,30.70
2022-09-01T16:52:05.656Z,30.70
2022-09-01T16:55:01.043Z,30.40
2022-09-01T17:02:18.861Z,30.10
2022-09-01T17:04:54.322Z,30.00
2022-09-01T17:07:49.447Z,29.20
2022-09-01T17:10:42.881Z,28.50
2022-09-01T17:13:25.996Z,27.90
2022-09-01T17:16:30.017Z,27.40
2022-09-01T17:19:04.883Z,27.00
2022-09-01T17:21:35.510Z,26.80
2022-09-01T17:24:26.053Z,26.50
2022-09-01T17:26:55.739Z,26.20
2022-09-01T17:30:02.291Z,26.00
2022-09-01T17:32:41.381Z,25.80
2022-09-01T17:35:40.772Z,25.60
2022-09-01T17:38:14.064Z,25.40
2022-09-01T17:41:14.411Z,25.20
2022-09-01T17:44:00.040Z,25.10
2022-09-01T17:46:41.638Z,25.10
2022-09-01T17:49:20.725Z,24.90
2022-09-01T17:52:03.054Z,24.80
2022-09-01T17:55:09.547Z,24.60
2022-09-01T17:57:50.894Z,24.50
2022-09-01T18:05:14.239Z,24.20
2022-09-01T18:07:44.005Z,24.00
2022-09-01T18:10:18.360Z,23.80
2022-09-01T18:12:46.717Z,23.60
2022-09-01T18:15:16.364Z,23.50
2022-09-01T18:17:53.553Z,23.50
2022-09-01T18:20:29.007Z,23.40
2022-09-01T18:23:11.211Z,23.30
2022-09-01T18:25:46.101Z,23.20
2022-09-01T18:28:14.837Z,23.10
2022-09-01T18:31:15.411Z,23.10
2022-09-01T18:34:01.325Z,22.90
2022-09-01T18:37:04.832Z,22.90
2022-09-01T18:39:50.875Z,22.90
2022-09-01T18:42:30.056Z,22.80
2022-09-01T18:45:19.114Z,22.70
2022-09-01T18:48:16.675Z,22.70
2022-09-01T18:51:05.300Z,22.60
2022-09-01T18:53:45.983Z,22.60
2022-09-01T18:56:25.012Z,22.60
2022-09-01T19:03:30.086Z,22.50
2022-09-01T19:06:26.289Z,22.50
2022-09-01T19:09:28.843Z,22.50
2022-09-01T19:12:05.755Z,22.50
2022-09-01T19:14:40.222Z,22.50
2022-09-01T19:17:30.784Z,22.50
2022-09-01T19:20:11.728Z,22.40
2022-09-01T19:22:57.043Z,22.40
2022-09-01T19:25:39.574Z,22.40
2022-09-01T19:28:25.272Z,22.40
2022-09-01T19:31:02.809Z,22.30
2022-09-01T19:33:38.251Z,22.30
2022-09-01T19:36:09.627Z,22.20
2022-09-01T19:38:37.570Z,22.20
2022-09-01T19:41:09.978Z,22.10
2022-09-01T19:43:40.332Z,22.10
2022-09-01T19:46:29.676Z,22.10
2022-09-01T19:49:03.762Z,22.00
2022-09-01T19:51:38.141Z,22.00
2022-09-01T19:54:44.212Z,22.00
2022-09-01T19:57:25.077Z,21.90
2022-09-01T20:04:48.973Z,21.80
2022-09-01T20:07:34.619Z,21.80
2022-09-01T20:10:11.170Z,21.70
2022-09-01T20:12:53.501Z,21.70
2022-09-01T20:15:38.279Z,21.60
2022-09-01T20:18:12.777Z,21.70
2022-09-01T20:20:45.763Z,21.60
2022-09-01T20:23:50.354Z,21.60
2022-09-01T20:26:41.440Z,21.60
2022-09-01T20:29:21.274Z,21.60
2022-09-01T20:31:56.663Z,21.60
2022-09-01T20:34:48.475Z,21.60
2022-09-01T20:37:38.420Z,21.60
2022-09-01T20:40:20.779Z,21.60
2022-09-01T20:42:59.478Z,21.60
2022-09-01T20:45:28.447Z,21.60
2022-09-01T20:47:59.478Z,21.50
2022-09-01T20:50:51.374Z,21.50
2022-09-01T20:54:06.016Z,21.40
2022-09-01T20:56:55.946Z,21.40
2022-09-01T20:59:36.334Z,21.30
2022-09-01T21:06:41.088Z,21.20
2022-09-01T21:09:19.968Z,21.20
2022-09-01T21:11:52.713Z,21.10
2022-09-01T21:14:42.534Z,21.00
2022-09-01T21:17:12.579Z,21.10
2022-09-01T21:19:54.087Z,21.10
2022-09-01T21:22:22.505Z,21.00
2022-09-01T21:24:50.344Z,21.00
2022-09-01T21:27:19.409Z,20.90
2022-09-01T21:30:43.033Z,20.90
2022-09-01T21:33:09.915Z,20.90
2022-09-01T21:35:36.716Z,20.90
2022-09-01T21:38:03.803Z,20.80
2022-09-01T21:40:31.148Z,20.80
2022-09-01T21:43:08.231Z,20.80
2022-09-01T21:45:37.559Z,20.80
2022-09-01T21:48:05.503Z,20.80
2022-09-01T21:50:33.895Z,20.70
2022-09-01T21:53:00.804Z,20.70
2022-09-01T21:55:28.463Z,20.70
2022-09-01T21:57:55.978Z,20.80
2022-09-01T22:00:28.748Z,20.70
2022-09-01T22:02:57.745Z,20.70
2022-09-01T22:05:27.549Z,20.60
2022-09-01T22:07:56.134Z,20.50
2022-09-01T22:10:26.505Z,20.50
2022-09-01T22:12:54.322Z,20.50
2022-09-01T22:15:24.151Z,20.50
2022-09-01T22:17:52.779Z,20.40
2022-09-01T22:20:22.504Z,20.40
2022-09-01T22:22:50.981Z,20.40
2022-09-01T22:25:23.876Z,20.30
2022-09-01T22:27:50.904Z,20.20
2022-09-01T22:30:19.211Z,20.20
2022-09-01T22:32:47.903Z,20.10
2022-09-01T22:35:16.125Z,20.10
2022-09-01T22:37:43.629Z,20.00
2022-09-01T22:40:12.765Z,20.00
2022-09-01T22:42:39.709Z,20.00
2022-09-01T22:45:08.497Z,19.90
2022-09-01T22:47:37.424Z,19.90
2022-09-01T22:50:07.421Z,19.80
2022-09-01T22:52:35.608Z,19.70
2022-09-01T22:55:03.861Z,19.60
2022-09-01T22:57:30.779Z,19.60
2022-09-01T22:59:57.892Z,19.50
2022-09-01T23:07:21.966Z,19.40
2022-09-01T23:09:48.860Z,19.30
2022-09-01T23:12:15.631Z,19.30
2022-09-01T23:14:42.448Z,19.10
2022-09-01T23:17:09.342Z,19.10
2022-09-01T23:19:36.183Z,19.00
2022-09-01T23:22:03.281Z,18.90
2022-09-01T23:24:30.208Z,18.80
2022-09-01T23:26:57.270Z,18.80
2022-09-01T23:29:25.310Z,18.80
2022-09-01T23:31:52.289Z,18.80
2022-09-01T23:34:19.230Z,18.70
2022-09-01T23:36:46.369Z,18.60
2022-09-01T23:39:13.447Z,18.60
2022-09-01T23:41:40.757Z,18.50
2022-09-01T23:53:00.729Z,18.30
2022-09-01T23:55:27.964Z,18.30
2022-09-01T23:57:54.790Z,18.20
